Time;durP1;ratioP1;P1;durP2;ratioP2;P2;SDS_P1;SDS_P2;PMS_P1;PMS_P2;Temp;Humidity;BMP_temperature;BMP_pressure;BME280_temperature;BME280_humidity;BME280_pressure;Samples;Min_cycle;Max_cycle;Signal;HPM_P1;HPM_P2
2022/11/16 00:01:22;;;;;;;63.92;24.35;;;8.60;84.00;;;;;;4118592;28;20035;-90
2022/11/16 00:03:23;;;;;;;70.95;27.20;;;8.70;83.90;;;;;;4135443;28;20414;-89
2022/11/16 00:05:24;;;;;;;62.83;23.92;;;8.60;84.00;;;;;;4122551;28;20023;-89
2022/11/16 00:07:25;;;;;;;63.15;22.58;;;8.60;83.90;;;;;;4136771;28;20428;-90
2022/11/16 00:09:27;;;;;;;60.20;22.42;;;8.60;84.00;;;;;;4113186;28;20109;-88
2022/11/16 00:11:28;;;;;;;59.83;23.33;;;8.60;84.10;;;;;;4106263;28;20044;-89
2022/11/16 00:13:31;;;;;;;53.13;20.77;;;8.60;84.00;;;;;;4133747;28;20050;-89
2022/11/16 00:15:32;;;;;;;64.00;23.10;;;8.80;84.00;;;;;;4121381;28;20034;-90
2022/11/16 00:17:32;;;;;;;47.97;20.30;;;8.70;83.80;;;;;;4133339;28;20029;-88
2022/11/16 00:19:33;;;;;;;54.40;21.48;;;8.70;83.60;;;;;;4121120;28;20030;-90
2022/11/16 00:21:34;;;;;;;47.53;20.33;;;8.60;83.50;;;;;;4121373;28;20030;-91
2022/11/16 00:23:37;;;;;;;48.60;19.80;;;8.80;83.70;;;;;;4122249;28;20836;-89
2022/11/16 00:25:38;;;;;;;58.72;21.17;;;8.70;83.50;;;;;;4120115;28;20061;-90
2022/11/16 00:27:38;;;;;;;54.85;19.35;;;8.80;83.50;;;;;;4125189;28;20422;-89
2022/11/16 00:29:39;;;;;;;58.25;21.15;;;8.60;83.30;;;;;;4120803;28;20038;-90
2022/11/16 00:31:40;;;;;;;49.70;20.02;;;8.60;83.30;;;;;;4118276;28;20120;-90
2022/11/16 00:33:41;;;;;;;46.17;18.15;;;8.70;83.20;;;;;;4123684;28;20458;-89
2022/11/16 00:35:41;;;;;;;51.60;19.63;;;8.80;83.10;;;;;;4136540;28;20038;-90
2022/11/16 00:37:42;;;;;;;51.28;19.98;;;8.70;83.00;;;;;;4118555;28;20041;-89
2022/11/16 00:39:43;;;;;;;49.10;20.40;;;8.70;82.90;;;;;;4104301;28;20502;-89
2022/11/16 00:41:44;;;;;;;46.42;18.92;;;8.80;83.00;;;;;;4121303;28;20030;-89
2022/11/16 00:44:07;;;;;;;51.15;18.77;;;8.80;82.90;;;;;;4125369;28;20026;-89
2022/11/16 00:46:28;;;;;;;42.97;18.15;;;8.80;82.80;;;;;;4134459;28;20038;-89
2022/11/16 00:48:48;;;;;;;46.05;17.95;;;8.80;82.70;;;;;;4136941;28;20916;-88
2022/11/16 00:51:09;;;;;;;41.78;17.85;;;8.80;82.50;;;;;;4143098;28;20458;-90
2022/11/16 00:53:30;;;;;;;41.88;17.30;;;8.90;82.50;;;;;;4139121;28;20405;-88
2022/11/16 00:55:51;;;;;;;44.55;17.75;;;8.80;82.30;;;;;;4138625;28;20434;-88
2022/11/16 00:58:12;;;;;;;51.72;18.98;;;8.90;82.20;;;;;;4126115;28;20836;-88
2022/11/16 01:00:33;;;;;;;50.53;17.92;;;8.90;82.20;;;;;;4125615;28;20026;-88
2022/11/16 01:02:53;;;;;;;48.88;19.13;;;8.80;82.00;;;;;;4118156;28;20710;-89
2022/11/16 01:05:14;;;;;;;47.83;18.00;;;8.90;81.90;;;;;;4122903;28;20152;-88
2022/11/16 01:07:36;;;;;;;44.00;17.65;;;8.90;81.90;;;;;;4131917;28;20495;-87
2022/11/16 01:09:57;;;;;;;48.50;18.83;;;8.90;81.80;;;;;;4133963;28;20490;-89
2022/11/16 01:12:18;;;;;;;39.92;16.25;;;8.90;81.90;;;;;;4133637;28;20532;-89
2022/11/16 01:14:41;;;;;;;42.83;18.42;;;8.90;81.80;;;;;;4135986;28;20048;-88
2022/11/16 01:17:02;;;;;;;45.15;18.10;;;8.90;81.90;;;;;;4133473;28;20560;-88
2022/11/16 01:19:23;;;;;;;43.67;17.25;;;8.90;82.50;;;;;;4135039;28;21385;-88
2022/11/16 01:21:44;;;;;;;48.85;18.98;;;8.90;81.80;;;;;;4121069;28;20569;-88
2022/11/16 01:24:02;;;;;;;45.85;17.58;;;8.90;81.80;;;;;;4120615;28;20555;-88
2022/11/16 01:26:03;;;;;;;39.67;17.25;;;8.90;81.80;;;;;;4120032;28;20038;-87
2022/11/16 01:28:04;;;;;;;46.38;18.65;;;8.90;81.70;;;;;;4132060;28;20167;-88
2022/11/16 01:30:07;;;;;;;51.83;19.80;;;8.90;81.60;;;;;;4137578;28;20022;-88
2022/11/16 01:32:08;;;;;;;58.10;20.17;;;8.80;81.50;;;;;;4134923;28;20487;-89
2022/11/16 01:34:08;;;;;;;47.55;17.25;;;8.80;81.50;;;;;;4130645;28;20025;-87
2022/11/16 01:36:13;;;;;;;44.72;16.45;;;8.80;81.50;;;;;;4132937;28;20038;-89
2022/11/16 01:38:14;;;;;;;35.28;15.73;;;8.90;81.50;;;;;;4117799;28;20026;-88
2022/11/16 01:40:15;;;;;;;39.47;16.02;;;9.00;81.60;;;;;;4134931;28;20085;-89
2022/11/16 01:42:18;;;;;;;33.92;15.30;;;8.80;81.20;;;;;;4122389;28;20026;-88
2022/11/16 01:44:38;;;;;;;44.92;16.45;;;9.00;81.20;;;;;;4133511;28;20432;-88
2022/11/16 01:46:42;;;;;;;32.25;15.07;;;8.90;80.80;;;;;;4119869;28;20034;-88
2022/11/16 01:48:43;;;;;;;36.85;14.30;;;8.80;80.90;;;;;;4122070;28;20022;-89
2022/11/16 01:50:44;;;;;;;36.28;14.95;;;8.80;80.80;;;;;;4121341;28;20030;-88
2022/11/16 01:52:52;;;;;;;35.10;14.88;;;8.80;80.80;;;;;;4120507;28;20034;-87
2022/11/16 01:54:53;;;;;;;35.63;14.15;;;8.90;80.80;;;;;;4132736;28;20030;-90
2022/11/16 01:56:55;;;;;;;31.33;13.10;;;8.90;80.70;;;;;;4117758;28;20037;-89
2022/11/16 01:58:56;;;;;;;35.67;14.13;;;8.80;80.60;;;;;;4117018;28;20034;-89
2022/11/16 02:00:57;;;;;;;32.90;14.20;;;9.00;80.30;;;;;;4118186;28;20517;-89
2022/11/16 02:02:58;;;;;;;34.15;13.70;;;9.00;80.60;;;;;;4115442;28;20014;-89
2022/11/16 02:05:00;;;;;;;35.58;13.10;;;8.90;80.40;;;;;;4103455;28;20073;-90
2022/11/16 02:07:11;;;;;;;38.20;13.38;;;8.90;80.20;;;;;;4139535;28;20030;-91
2022/11/16 02:09:53;;;;;;;37.17;14.20;;;8.90;80.10;;;;;;4116968;28;20108;-89
2022/11/16 02:12:21;;;;;;;35.38;13.40;;;8.80;80.10;;;;;;4130013;28;20117;-89
2022/11/16 02:14:31;;;;;;;33.05;12.90;;;8.80;80.20;;;;;;4121776;28;20114;-90
2022/11/16 02:17:03;;;;;;;29.35;11.95;;;8.90;80.00;;;;;;4119980;28;20030;-89
2022/11/16 02:19:42;;;;;;;29.83;11.23;;;8.90;80.00;;;;;;4135599;28;20041;-89
2022/11/16 02:22:03;;;;;;;33.05;12.15;;;8.90;79.80;;;;;;4132120;28;20483;-89
2022/11/16 02:24:13;;;;;;;25.67;11.15;;;8.80;79.70;;;;;;4135284;28;20033;-88
2022/11/16 02:26:38;;;;;;;26.45;10.88;;;8.90;79.80;;;;;;4127610;28;20110;-89
2022/11/16 02:28:45;;;;;;;29.88;11.77;;;8.90;79.80;;;;;;4134509;28;20040;-88
2022/11/16 02:30:49;;;;;;;35.65;12.38;;;8.80;79.70;;;;;;4130879;28;20030;-86
2022/11/16 02:33:00;;;;;;;27.55;10.25;;;8.90;79.60;;;;;;4115636;28;20058;-88
2022/11/16 02:35:22;;;;;;;24.98;10.68;;;8.80;79.50;;;;;;4118134;28;20034;-90
2022/11/16 02:37:26;;;;;;;25.48;11.27;;;8.80;79.50;;;;;;4117875;28;20063;-90
2022/11/16 02:39:28;;;;;;;24.58;10.35;;;8.90;79.50;;;;;;4119980;28;20435;-89
2022/11/16 02:41:33;;;;;;;27.13;11.85;;;8.90;79.40;;;;;;4117199;28;20134;-88
2022/11/16 02:43:39;;;;;;;30.27;11.38;;;8.80;79.40;;;;;;4134444;28;20030;-90
2022/11/16 02:45:44;;;;;;;25.75;10.30;;;8.80;79.30;;;;;;4139048;28;20029;-90
2022/11/16 02:47:48;;;;;;;29.95;11.32;;;8.80;79.40;;;;;;4134370;28;20427;-89
2022/11/16 02:49:54;;;;;;;26.63;10.20;;;8.80;79.20;;;;;;4120512;28;20049;-88
2022/11/16 02:51:57;;;;;;;24.40;10.25;;;8.80;79.20;;;;;;4136806;28;20446;-89
2022/11/16 02:54:07;;;;;;;27.30;10.70;;;8.80;79.30;;;;;;4135992;28;20093;-88
2022/11/16 02:56:12;;;;;;;31.35;10.32;;;8.80;79.20;;;;;;4121770;28;20030;-88
2022/11/16 02:58:23;;;;;;;27.83;10.43;;;8.80;79.20;;;;;;4139595;28;20033;-88
2022/11/16 03:00:30;;;;;;;25.88;9.45;;;8.80;79.20;;;;;;4137350;28;20034;-87
2022/11/16 03:02:53;;;;;;;22.17;10.13;;;9.00;79.30;;;;;;4131057;28;20022;-88
2022/11/16 03:05:30;;;;;;;25.58;9.25;;;8.80;79.10;;;;;;4133302;28;20281;-87
2022/11/16 03:07:59;;;;;;;23.40;9.35;;;8.80;79.10;;;;;;4142893;28;20041;-88
2022/11/16 03:13:02;;;;;;;25.38;10.32;;;8.80;78.70;;;;;;4130684;28;20153;-88
2022/11/16 03:15:23;;;;;;;29.27;10.88;;;8.80;78.70;;;;;;4133298;28;20406;-88
2022/11/16 03:17:48;;;;;;;36.88;10.40;;;8.70;78.70;;;;;;4133615;28;20030;-88
2022/11/16 03:20:14;;;;;;;27.08;9.65;;;8.80;78.70;;;;;;4139152;28;20022;-89
2022/11/16 03:22:37;;;;;;;25.50;9.63;;;8.80;78.90;;;;;;4120852;28;20117;-89
2022/11/16 03:24:58;;;;;;;19.88;9.38;;;8.80;78.80;;;;;;4119768;28;20034;-88
2022/11/16 03:27:37;;;;;;;27.58;10.63;;;8.80;78.50;;;;;;4138078;28;20036;-88
2022/11/16 03:30:12;;;;;;;24.83;10.13;;;8.70;78.30;;;;;;4139647;28;20462;-89
2022/11/16 03:32:48;;;;;;;24.25;10.10;;;8.80;78.30;;;;;;4144768;28;20034;-90
2022/11/16 03:35:18;;;;;;;19.05;9.10;;;8.80;78.30;;;;;;4122570;28;20023;-88
2022/11/16 03:37:20;;;;;;;23.95;9.02;;;8.80;78.10;;;;;;4137530;28;20033;-89
2022/11/16 03:39:36;;;;;;;24.88;9.38;;;8.70;77.80;;;;;;4119139;28;20269;-89
2022/11/16 03:41:40;;;;;;;24.88;9.80;;;8.80;78.10;;;;;;4119355;28;20041;-89
2022/11/16 03:43:42;;;;;;;21.90;9.95;;;8.70;77.90;;;;;;4104067;28;20511;-88
2022/11/16 03:45:44;;;;;;;28.17;9.98;;;8.80;77.90;;;;;;4109021;28;20031;-89
2022/11/16 03:47:45;;;;;;;27.35;10.50;;;8.80;77.80;;;;;;4134449;28;20033;-91
2022/11/16 03:49:46;;;;;;;24.58;8.93;;;8.80;77.70;;;;;;4106510;28;20381;-89
2022/11/16 03:51:48;;;;;;;24.38;9.82;;;8.80;77.90;;;;;;4123516;28;20030;-89
2022/11/16 03:53:49;;;;;;;24.02;8.90;;;8.70;78.00;;;;;;4118095;28;20085;-89
2022/11/16 03:55:49;;;;;;;21.52;8.90;;;8.60;77.80;;;;;;4138200;28;20029;-89
2022/11/16 03:57:50;;;;;;;22.80;8.38;;;8.70;78.10;;;;;;4121887;28;20073;-89
2022/11/16 03:59:51;;;;;;;24.13;7.70;;;8.70;78.00;;;;;;4117942;28;20437;-88
2022/11/16 04:01:52;;;;;;;25.42;8.52;;;8.70;77.90;;;;;;4117675;28;20034;-89
2022/11/16 04:03:52;;;;;;;25.75;8.70;;;8.70;77.80;;;;;;4136683;28;20030;-89
2022/11/16 04:24:22;;;;;;;24.13;8.50;;;8.60;77.70;;;;;;4134214;28;20065;-88
2022/11/16 04:29:03;;;;;;;31.23;8.50;;;8.50;78.00;;;;;;4134454;28;19921;-88
2022/11/16 04:38:42;;;;;;;25.67;8.82;;;8.50;78.30;;;;;;4136108;28;20045;-87
2022/11/16 04:41:02;;;;;;;30.20;9.35;;;8.70;78.70;;;;;;4133642;28;20049;-87
2022/11/16 04:43:23;;;;;;;27.70;9.13;;;8.40;79.00;;;;;;4134856;28;20049;-88
2022/11/16 04:48:23;;;;;;;22.25;8.27;;;8.60;79.90;;;;;;4136063;28;20041;-87
2022/11/16 04:50:44;;;;;;;32.40;9.90;;;8.50;79.00;;;;;;4124565;28;20121;-89
2022/11/16 04:53:05;;;;;;;22.75;8.95;;;8.50;79.00;;;;;;4120397;28;20038;-89
2022/11/16 04:55:26;;;;;;;32.55;10.13;;;8.60;79.00;;;;;;4133959;28;20069;-90
2022/11/16 04:57:47;;;;;;;28.67;10.18;;;8.70;79.00;;;;;;4123436;28;20039;-89
2022/11/16 04:59:47;;;;;;;30.25;10.45;;;8.60;78.90;;;;;;4131659;28;20026;-89
2022/11/16 05:02:08;;;;;;;26.63;8.95;;;8.70;78.90;;;;;;4135680;28;20142;-90
2022/11/16 05:04:29;;;;;;;32.95;11.13;;;8.70;78.80;;;;;;4124020;28;20161;-90
2022/11/16 05:06:49;;;;;;;35.10;11.88;;;8.70;78.80;;;;;;4121312;28;20064;-88
2022/11/16 05:09:10;;;;;;;24.77;9.95;;;8.70;78.70;;;;;;4132190;28;20061;-88
2022/11/16 05:11:31;;;;;;;31.17;11.35;;;8.80;78.80;;;;;;4132544;28;20060;-89
2022/11/16 05:13:51;;;;;;;27.50;10.52;;;8.70;78.70;;;;;;4125846;28;20011;-92
2022/11/16 05:15:52;;;;;;;32.95;10.73;;;8.70;78.70;;;;;;4134747;28;20076;-88
2022/11/16 05:18:12;;;;;;;28.45;11.80;;;8.80;78.80;;;;;;4119197;28;20050;-88
2022/11/16 05:21:18;;;;;;;26.77;9.88;;;8.70;78.80;;;;;;4131837;28;20038;-88
2022/11/16 05:25:53;;;;;;;22.73;9.77;;;8.70;78.60;;;;;;4144007;28;20038;-88
2022/11/16 05:28:14;;;;;;;30.42;10.95;;;8.70;78.70;;;;;;4141722;28;20026;-89
2022/11/16 05:30:34;;;;;;;26.23;10.20;;;8.60;78.70;;;;;;4131413;28;20030;-88
2022/11/16 05:32:55;;;;;;;27.13;10.40;;;8.70;78.80;;;;;;4130147;28;20030;-88
2022/11/16 05:35:16;;;;;;;26.95;11.35;;;8.60;78.70;;;;;;4120100;28;20082;-88
2022/11/16 05:37:36;;;;;;;23.83;10.45;;;8.60;79.00;;;;;;4116753;28;20054;-88
2022/11/16 05:39:38;;;;;;;28.73;10.32;;;8.60;79.20;;;;;;4135278;28;21094;-88
2022/11/16 05:41:38;;;;;;;26.92;11.45;;;8.60;79.20;;;;;;4120847;28;20023;-88
2022/11/16 05:43:39;;;;;;;27.83;10.90;;;8.60;79.50;;;;;;4122063;28;20034;-87
2022/11/16 05:45:41;;;;;;;28.80;11.85;;;8.70;79.50;;;;;;4141482;28;20141;-89
2022/11/16 05:47:43;;;;;;;25.90;10.88;;;8.50;79.60;;;;;;4115947;28;20046;-89
2022/11/16 05:49:44;;;;;;;29.90;10.30;;;8.50;79.80;;;;;;4109566;28;20031;-88
2022/11/16 05:51:45;;;;;;;22.77;9.95;;;8.60;79.80;;;;;;4138062;28;20037;-88
2022/11/16 05:53:48;;;;;;;32.28;11.70;;;8.50;79.70;;;;;;4135437;28;20426;-88
2022/11/16 05:55:48;;;;;;;25.55;10.40;;;8.60;79.70;;;;;;4135480;28;20040;-88
2022/11/16 05:57:50;;;;;;;33.33;11.60;;;8.60;79.60;;;;;;4101536;28;20035;-87
2022/11/16 05:59:51;;;;;;;30.05;9.95;;;8.60;79.70;;;;;;4118526;28;20065;-88
2022/11/16 06:01:52;;;;;;;26.33;10.98;;;8.50;79.60;;;;;;4104552;28;20125;-88
2022/11/16 06:03:53;;;;;;;28.88;11.48;;;8.60;79.80;;;;;;4120000;28;20070;-88
2022/11/16 06:05:54;;;;;;;32.85;10.52;;;8.50;79.90;;;;;;4136585;28;20021;-89
2022/11/16 06:07:55;;;;;;;33.17;11.40;;;8.50;79.90;;;;;;4131183;28;20065;-88
2022/11/16 06:09:56;;;;;;;34.97;12.38;;;8.50;80.70;;;;;;4134376;28;20022;-88
2022/11/16 06:11:56;;;;;;;25.05;11.02;;;8.50;80.10;;;;;;4119827;28;20042;-87
2022/11/16 06:13:58;;;;;;;29.80;11.23;;;8.40;80.10;;;;;;4134236;28;20026;-88
2022/11/16 06:16:00;;;;;;;28.30;11.32;;;8.50;80.30;;;;;;4136391;28;20102;-89
2022/11/16 06:18:00;;;;;;;28.42;11.80;;;8.40;80.30;;;;;;4101930;28;20038;-87
2022/11/16 06:20:01;;;;;;;25.00;10.63;;;8.40;80.40;;;;;;4118123;28;20121;-88
2022/11/16 06:22:02;;;;;;;24.83;11.60;;;8.50;80.30;;;;;;4120255;28;20028;-87
2022/11/16 06:24:08;;;;;;;;;;;8.50;80.30;;;;;;4137373;28;20026;-87
2022/11/16 06:26:09;;;;;;;32.40;11.50;;;8.40;80.30;;;;;;4138990;28;19913;-92
2022/11/16 06:28:10;;;;;;;25.17;11.10;;;8.50;80.20;;;;;;4121677;28;20030;-88
2022/11/16 06:30:11;;;;;;;34.42;11.85;;;8.50;80.40;;;;;;4135901;28;20117;-87
2022/11/16 06:32:13;;;;;;;24.05;10.43;;;8.40;80.50;;;;;;4136032;28;20034;-87
2022/11/16 06:34:14;;;;;;;22.13;10.23;;;8.40;80.60;;;;;;4123237;28;20495;-88
2022/11/16 06:36:15;;;;;;;30.27;11.77;;;8.40;80.50;;;;;;4146037;28;20483;-85
2022/11/16 06:38:19;;;;;;;26.60;11.07;;;8.50;80.60;;;;;;4136834;28;20033;-88
2022/11/16 06:40:20;;;;;;;32.08;13.75;;;8.50;80.70;;;;;;4109427;28;20081;-88
2022/11/16 06:42:21;;;;;;;30.30;11.60;;;8.40;80.70;;;;;;4125189;28;20045;-87
2022/11/16 06:44:22;;;;;;;29.00;11.20;;;8.40;81.00;;;;;;4120337;28;20030;-89
2022/11/16 06:46:23;;;;;;;28.98;12.13;;;8.40;81.60;;;;;;4123805;28;20704;-90
2022/11/16 06:48:24;;;;;;;30.25;11.95;;;8.50;80.90;;;;;;4125707;28;20030;-91
2022/11/16 06:50:25;;;;;;;28.55;11.65;;;8.50;80.90;;;;;;4123224;28;20403;-89
2022/11/16 06:52:27;;;;;;;33.47;12.43;;;8.50;80.90;;;;;;4109376;28;20074;-88
2022/11/16 06:54:28;;;;;;;31.65;13.55;;;8.50;80.80;;;;;;4141722;28;20069;-87
2022/11/16 06:56:32;;;;;;;30.88;12.65;;;8.50;80.70;;;;;;4123234;28;20054;-88
2022/11/16 06:58:32;;;;;;;34.25;12.98;;;8.50;80.70;;;;;;4141462;28;20453;-88
2022/11/16 07:00:34;;;;;;;34.75;12.95;;;8.60;80.80;;;;;;4121814;28;20101;-88
2022/11/16 07:02:36;;;;;;;29.67;12.60;;;8.50;80.60;;;;;;4117199;28;20026;-88
2022/11/16 07:04:57;;;;;;;31.92;12.88;;;8.60;80.70;;;;;;4124628;28;20035;-88
2022/11/16 07:07:17;;;;;;;29.60;12.80;;;8.50;80.40;;;;;;4134137;28;20045;-88
2022/11/16 07:09:20;;;;;;;36.97;14.02;;;8.40;80.50;;;;;;4126914;28;20077;-87
2022/11/16 07:11:41;;;;;;;31.05;12.25;;;8.40;80.70;;;;;;4123831;28;20038;-88
2022/11/16 07:14:02;;;;;;;27.00;11.60;;;8.40;80.40;;;;;;4131128;28;20231;-87
2022/11/16 07:16:23;;;;;;;39.67;13.43;;;8.40;80.40;;;;;;4134114;28;20038;-87
2022/11/16 07:18:43;;;;;;;29.08;10.70;;;8.50;80.40;;;;;;4118416;28;20034;-87
2022/11/16 07:21:15;;;;;;;32.28;10.85;;;8.50;80.20;;;;;;4138495;28;20033;-88
2022/11/16 07:23:36;;;;;;;30.88;11.25;;;8.50;80.10;;;;;;4136027;28;20037;-87
2022/11/16 07:26:02;;;;;;;28.88;10.73;;;8.50;79.90;;;;;;4137569;28;20026;-88
2022/11/16 07:28:23;;;;;;;30.27;11.73;;;8.50;79.80;;;;;;4123104;28;20096;-88
2022/11/16 07:30:43;;;;;;;22.25;10.48;;;8.50;79.70;;;;;;4135481;28;20077;-87
2022/11/16 07:33:04;;;;;;;33.63;10.55;;;8.50;79.40;;;;;;4120759;28;20058;-87
2022/11/16 07:35:25;;;;;;;28.60;11.23;;;8.40;79.30;;;;;;4135343;28;20085;-86
2022/11/16 07:37:45;;;;;;;26.90;10.18;;;8.40;79.30;;;;;;4126649;28;20290;-88
2022/11/16 07:40:07;;;;;;;26.52;10.13;;;8.50;79.30;;;;;;4138935;28;20042;-88
2022/11/16 07:42:28;;;;;;;24.42;8.98;;;8.50;79.20;;;;;;4127207;28;20056;-86
2022/11/16 07:44:28;;;;;;;25.17;9.80;;;8.50;79.20;;;;;;4142805;28;20049;-88
2022/11/16 07:46:29;;;;;;;27.85;10.02;;;8.40;79.10;;;;;;4135783;28;20054;-88
2022/11/16 07:48:33;;;;;;;23.80;10.07;;;8.40;79.30;;;;;;4104938;28;20026;-86
2022/11/16 07:51:02;;;;;;;21.15;9.35;;;8.50;79.30;;;;;;4133067;28;20077;-87
2022/11/16 07:53:15;;;;;;;22.40;9.57;;;8.50;79.30;;;;;;4141375;28;20022;-87
2022/11/16 07:55:16;;;;;;;25.50;7.82;;;8.60;79.30;;;;;;4137370;28;20022;-87
2022/11/16 07:57:17;;;;;;;25.23;8.23;;;8.50;79.00;;;;;;4119814;28;20044;-87
2022/11/16 07:59:17;;;;;;;25.23;7.55;;;8.50;79.00;;;;;;4117373;28;20046;-88
2022/11/16 08:01:18;;;;;;;25.52;9.27;;;8.50;78.80;;;;;;4131609;28;20026;-88
2022/11/16 08:03:19;;;;;;;24.77;7.85;;;8.50;78.50;;;;;;4134173;28;20029;-89
2022/11/16 08:05:20;;;;;;;21.52;7.55;;;8.50;78.50;;;;;;4118327;28;20026;-87
2022/11/16 08:07:21;;;;;;;17.77;7.25;;;8.50;78.40;;;;;;4133004;28;20041;-87
2022/11/16 08:09:42;;;;;;;23.92;7.70;;;8.50;78.30;;;;;;4123732;28;20077;-87
2022/11/16 08:11:43;;;;;;;20.90;6.82;;;8.40;77.80;;;;;;4104680;28;20047;-86
2022/11/16 08:14:03;;;;;;;14.82;5.68;;;8.50;77.70;;;;;;4120905;28;20049;-87
2022/11/16 08:16:24;;;;;;;17.70;5.93;;;8.50;77.60;;;;;;4121360;28;20113;-87
2022/11/16 08:18:45;;;;;;;19.17;6.72;;;8.50;77.50;;;;;;4133792;28;20057;-88
2022/11/16 08:21:07;;;;;;;17.73;6.45;;;8.60;77.10;;;;;;4138865;28;20034;-86
2022/11/16 08:23:29;;;;;;;17.73;6.40;;;8.60;77.00;;;;;;4131669;28;20034;-87
2022/11/16 08:25:50;;;;;;;23.45;6.28;;;8.60;76.70;;;;;;4135093;28;20073;-87
2022/11/16 08:27:51;;;;;;;16.63;5.82;;;8.60;76.60;;;;;;4129790;28;20025;-88
2022/11/16 08:29:52;;;;;;;14.93;5.85;;;8.50;76.30;;;;;;4119313;28;20026;-88
2022/11/16 08:31:52;;;;;;;17.83;5.80;;;8.50;76.20;;;;;;4114676;28;20042;-89
2022/11/16 08:33:53;;;;;;;18.05;5.10;;;8.60;76.20;;;;;;4133383;28;20049;-88
2022/11/16 08:35:56;;;;;;;14.48;5.50;;;8.70;76.20;;;;;;4117404;28;20065;-88
2022/11/16 08:37:56;;;;;;;17.10;5.03;;;8.70;76.00;;;;;;4122096;28;20026;-88
2022/11/16 08:39:57;;;;;;;14.10;5.25;;;8.60;75.90;;;;;;4118446;28;20718;-87
2022/11/16 08:41:58;;;;;;;16.20;5.30;;;8.60;75.60;;;;;;4118417;28;20030;-89
2022/11/16 08:44:19;;;;;;;18.08;5.45;;;8.80;75.80;;;;;;4131217;28;20054;-89
2022/11/16 08:46:20;;;;;;;14.73;5.57;;;8.60;75.50;;;;;;4131206;28;20026;-88
2022/11/16 08:48:41;;;;;;;12.57;4.60;;;8.60;75.00;;;;;;4138427;28;20037;-88
2022/11/16 08:51:04;;;;;;;16.02;4.80;;;8.50;74.40;;;;;;4137793;28;20057;-88
2022/11/16 08:53:25;;;;;;;10.43;4.07;;;8.60;74.70;;;;;;4134384;28;20113;-88
2022/11/16 08:55:45;;;;;;;12.07;4.20;;;8.60;74.50;;;;;;4124879;28;20110;-88
2022/11/16 08:58:06;;;;;;;17.88;4.65;;;8.70;74.20;;;;;;4125833;28;20396;-88
2022/11/16 09:00:27;;;;;;;14.82;4.30;;;8.60;74.10;;;;;;4121867;28;20137;-89
2022/11/16 09:02:47;;;;;;;12.15;3.83;;;8.50;73.80;;;;;;4126803;28;20038;-89
2022/11/16 09:05:10;;;;;;;10.57;3.63;;;8.60;74.10;;;;;;4137344;28;20079;-89
2022/11/16 09:07:31;;;;;;;9.00;2.92;;;8.60;74.00;;;;;;4130720;28;20064;-88
2022/11/16 09:09:51;;;;;;;13.15;3.60;;;8.50;73.50;;;;;;4118753;28;20058;-87
2022/11/16 09:12:12;;;;;;;9.02;2.97;;;8.70;73.20;;;;;;4118037;28;20046;-90
2022/11/16 09:14:33;;;;;;;10.63;2.95;;;8.50;72.70;;;;;;4126923;28;20034;-88
2022/11/16 09:16:53;;;;;;;13.07;2.92;;;8.50;72.70;;;;;;4121914;28;20161;-88
2022/11/16 09:19:14;;;;;;;10.20;2.63;;;8.60;72.70;;;;;;4135946;28;20053;-89
2022/11/16 09:21:36;;;;;;;7.22;2.45;;;8.60;72.50;;;;;;4141169;28;20292;-89
2022/11/16 09:23:57;;;;;;;11.48;2.88;;;8.70;72.30;;;;;;4130416;28;20065;-89
2022/11/16 09:26:01;;;;;;;8.63;2.45;;;8.60;72.20;;;;;;4114821;28;20038;-90
2022/11/16 09:28:02;;;;;;;7.55;2.47;;;8.60;72.30;;;;;;4136289;28;20026;-90
2022/11/16 09:30:04;;;;;;;9.13;2.20;;;8.60;72.30;;;;;;4114924;28;20603;-90
2022/11/16 09:32:25;;;;;;;8.02;2.88;;;8.60;72.20;;;;;;4133279;28;20469;-88
2022/11/16 09:34:45;;;;;;;7.28;2.67;;;8.60;71.80;;;;;;4132842;28;20029;-89
2022/11/16 09:37:06;;;;;;;10.23;2.75;;;8.60;72.10;;;;;;4134038;28;20524;-89
2022/11/16 09:39:30;;;;;;;8.93;2.38;;;8.60;71.80;;;;;;4134920;28;20628;-89
2022/11/16 09:42:04;;;;;;;13.32;2.83;;;8.60;71.80;;;;;;4136517;28;20099;-87
2022/11/16 09:44:51;;;;;;;7.53;2.55;;;8.60;72.10;;;;;;4124372;28;20418;-88
2022/11/16 09:47:20;;;;;;;10.18;2.60;;;8.70;71.60;;;;;;4137761;28;20473;-89
2022/11/16 09:49:46;;;;;;;26.60;3.80;;;8.50;70.70;;;;;;4134375;28;20038;-88
2022/11/16 09:52:27;;;;;;;7.82;2.47;;;8.50;70.70;;;;;;4138170;28;20045;-88
2022/11/16 09:54:34;;;;;;;11.35;2.75;;;8.50;70.70;;;;;;4139956;28;20026;-89
2022/11/16 09:56:40;;;;;;;13.80;2.65;;;8.60;71.00;;;;;;4132155;28;20117;-88
2022/11/16 09:59:07;;;;;;;8.70;3.17;;;8.60;71.10;;;;;;4124233;28;20503;-88
2022/11/16 10:01:30;;;;;;;14.18;3.00;;;8.60;71.90;;;;;;4139066;28;20590;-88
2022/11/16 10:03:57;;;;;;;10.10;2.43;;;8.80;71.20;;;;;;4128681;28;20403;-89
2022/11/16 10:06:59;;;;;;;10.38;2.67;;;8.60;71.00;;;;;;4125952;28;20454;-89
2022/11/16 10:09:00;;;;;;;8.93;2.55;;;8.50;70.10;;;;;;4126880;28;20030;-87
2022/11/16 10:11:32;;;;;;;9.63;2.70;;;8.60;70.60;;;;;;4122209;28;20495;-89
2022/11/16 10:14:04;;;;;;;8.38;2.60;;;8.60;70.50;;;;;;4123242;28;20442;-88
2022/11/16 10:16:35;;;;;;;10.20;3.08;;;8.60;70.50;;;;;;4124454;28;20514;-88
2022/11/16 10:19:06;;;;;;;7.40;2.35;;;8.60;70.80;;;;;;4117499;28;20039;-88
2022/11/16 10:21:50;;;;;;;9.68;2.80;;;8.60;70.80;;;;;;4138771;28;20529;-88
2022/11/16 10:24:25;;;;;;;9.00;2.80;;;8.60;70.70;;;;;;4139369;28;20042;-89
2022/11/16 10:26:54;;;;;;;13.38;2.55;;;8.60;70.40;;;;;;4140508;28;20577;-89
2022/11/16 10:29:38;;;;;;;13.23;3.15;;;8.60;70.50;;;;;;4118793;28;20105;-89
2022/11/16 10:31:55;;;;;;;12.48;2.88;;;8.60;70.40;;;;;;4109856;28;20134;-89
2022/11/16 10:33:57;;;;;;;8.88;3.08;;;8.60;70.00;;;;;;4110272;28;20019;-88
2022/11/16 10:35:58;;;;;;;6.20;2.35;;;8.70;70.10;;;;;;4110414;28;20027;-88
2022/11/16 10:38:02;;;;;;;10.27;3.28;;;8.60;70.00;;;;;;4112330;28;20070;-89
2022/11/16 10:40:29;;;;;;;9.25;2.50;;;8.60;69.90;;;;;;4127362;28;20029;-88
2022/11/16 10:42:38;;;;;;;7.15;2.80;;;8.60;69.80;;;;;;4136352;28;20034;-88
2022/11/16 10:44:43;;;;;;;13.00;3.78;;;8.60;69.70;;;;;;4126366;28;20134;-88
2022/11/16 10:47:04;;;;;;;9.75;2.55;;;8.60;69.30;;;;;;4112085;28;20031;-88
2022/11/16 10:49:28;;;;;;;11.25;3.10;;;8.60;69.60;;;;;;4142690;28;20108;-87
2022/11/16 10:51:30;;;;;;;12.65;3.00;;;8.60;69.40;;;;;;4137790;28;20030;-88
2022/11/16 10:53:37;;;;;;;7.75;2.70;;;8.70;69.50;;;;;;4104398;28;20100;-88
2022/11/16 10:55:37;;;;;;;9.25;2.72;;;8.60;69.50;;;;;;4141001;28;20034;-88
2022/11/16 10:58:02;;;;;;;9.50;3.15;;;8.50;70.10;;;;;;4120979;28;20050;-87
2022/11/16 11:00:03;;;;;;;7.95;2.70;;;8.50;69.40;;;;;;4144296;28;20151;-88
2022/11/16 11:02:23;;;;;;;9.35;2.20;;;8.50;69.40;;;;;;4138432;28;20037;-89
2022/11/16 11:05:01;;;;;;;8.90;2.95;;;8.50;69.60;;;;;;4139758;28;20085;-89
2022/11/16 11:07:30;;;;;;;9.35;2.58;;;8.60;69.70;;;;;;4125668;28;20948;-87
2022/11/16 11:09:33;;;;;;;7.38;2.30;;;8.60;69.70;;;;;;4119816;28;20398;-88
2022/11/16 11:14:38;;;;;;;5.20;2.75;;;8.60;69.70;;;;;;4138036;28;20960;-89
2022/11/16 11:17:11;;;;;;;7.88;2.28;;;8.60;69.90;;;;;;4129441;28;20134;-88
2022/11/16 11:19:31;;;;;;;15.80;2.47;;;8.50;69.70;;;;;;4121631;28;20093;-89
2022/11/16 11:21:59;;;;;;;10.20;2.55;;;8.50;69.80;;;;;;4126881;28;20034;-89
2022/11/16 11:24:03;;;;;;;10.65;2.65;;;8.60;69.80;;;;;;4106207;28;20035;-88
2022/11/16 11:26:37;;;;;;;12.60;2.85;;;8.50;69.80;;;;;;4127442;28;20035;-89
2022/11/16 11:28:59;;;;;;;9.80;2.90;;;8.40;69.70;;;;;;4126092;28;20027;-88
2022/11/16 11:31:21;;;;;;;7.40;2.33;;;8.40;69.90;;;;;;4118308;28;20027;-89
2022/11/16 11:33:47;;;;;;;15.10;3.25;;;8.40;70.00;;;;;;4120122;28;20045;-89
2022/11/16 11:36:20;;;;;;;11.57;2.35;;;8.40;70.00;;;;;;4136416;28;20069;-89
2022/11/16 11:38:59;;;;;;;12.32;2.85;;;8.40;70.00;;;;;;4121351;28;20058;-88
2022/11/16 11:41:20;;;;;;;12.80;3.42;;;8.50;70.20;;;;;;4138980;28;20049;-89
2022/11/16 11:43:40;;;;;;;13.38;2.53;;;8.40;70.10;;;;;;4138075;28;20037;-88
2022/11/16 11:46:10;;;;;;;13.27;2.58;;;8.40;70.20;;;;;;4133377;28;20426;-88
2022/11/16 11:49:15;;;;;;;7.43;2.40;;;8.50;70.20;;;;;;4126260;28;20133;-88
2022/11/16 11:51:23;;;;;;;8.10;2.38;;;8.40;70.30;;;;;;4035035;29;20123;-87
2022/11/16 11:53:57;;;;;;;7.03;2.35;;;8.20;70.20;;;;;;4049272;29;20029;-88
2022/11/16 11:55:58;;;;;;;;;;;8.30;70.70;;;;;;4014010;29;20048;-88
2022/11/16 11:58:01;;;;;;;8.45;1.98;;;8.30;70.80;;;;;;4021092;29;19920;-88
2022/11/16 12:00:04;;;;;;;8.63;2.25;;;8.30;70.80;;;;;;4039035;29;20104;-87
2022/11/16 12:02:23;;;;;;;16.92;2.30;;;8.30;71.10;;;;;;4003742;29;20037;-87
2022/11/16 12:04:45;;;;;;;15.75;2.67;;;8.30;71.30;;;;;;4037908;29;20036;-88
2022/11/16 12:07:06;;;;;;;8.18;2.22;;;8.20;71.60;;;;;;4033523;29;20032;-89
2022/11/16 12:09:52;;;;;;;13.20;2.78;;;8.30;71.80;;;;;;4040663;29;20080;-88